sensor_id;sensor_type;location;lat;lon;timestamp;P1;durP1;ratioP1;P2;durP2;ratioP2
68315;SDS011;55508;54.368;18.406;2022-09-27T00:00:45;10.57;;;9.63;;
68315;SDS011;55508;54.368;18.406;2022-09-27T00:03:12;11.10;;;10.20;;
68315;SDS011;55508;54.368;18.406;2022-09-27T00:05:39;11.13;;;10.02;;
68315;SDS011;55508;54.368;18.406;2022-09-27T00:08:06;11.50;;;10.50;;
68315;SDS011;55508;54.368;18.406;2022-09-27T00:10:33;12.00;;;11.00;;
68315;SDS011;55508;54.368;18.406;2022-09-27T00:13:00;11.77;;;10.77;;
68315;SDS011;55508;54.368;18.406;2022-09-27T00:15:27;14.80;;;12.85;;
68315;SDS011;55508;54.368;18.406;2022-09-27T00:17:54;12.20;;;11.00;;
68315;SDS011;55508;54.368;18.406;2022-09-27T00:20:21;12.63;;;10.57;;
68315;SDS011;55508;54.368;18.406;2022-09-27T00:22:48;11.25;;;10.07;;
68315;SDS011;55508;54.368;18.406;2022-09-27T00:25:15;10.93;;;9.95;;
68315;SDS011;55508;54.368;18.406;2022-09-27T00:27:43;11.43;;;9.52;;
68315;SDS011;55508;54.368;18.406;2022-09-27T00:30:10;10.93;;;9.65;;
68315;SDS011;55508;54.368;18.406;2022-09-27T00:32:38;13.43;;;9.18;;
68315;SDS011;55508;54.368;18.406;2022-09-27T00:35:05;10.30;;;9.40;;
68315;SDS011;55508;54.368;18.406;2022-09-27T00:37:32;11.20;;;10.20;;
68315;SDS011;55508;54.368;18.406;2022-09-27T00:39:59;11.02;;;9.90;;
68315;SDS011;55508;54.368;18.406;2022-09-27T00:42:26;11.27;;;10.23;;
68315;SDS011;55508;54.368;18.406;2022-09-27T00:45:14;12.57;;;10.70;;
68315;SDS011;55508;54.368;18.406;2022-09-27T00:47:48;11.95;;;10.57;;
68315;SDS011;55508;54.368;18.406;2022-09-27T00:56:03;11.10;;;10.10;;
68315;SDS011;55508;54.368;18.406;2022-09-27T00:58:36;13.20;;;10.82;;
68315;SDS011;55508;54.368;18.406;2022-09-27T01:01:08;10.95;;;9.68;;
68315;SDS011;55508;54.368;18.406;2022-09-27T01:03:43;11.63;;;10.52;;
68315;SDS011;55508;54.368;18.406;2022-09-27T01:06:14;11.35;;;10.35;;
68315;SDS011;55508;54.368;18.406;2022-09-27T01:08:42;14.00;;;11.20;;
68315;SDS011;55508;54.368;18.406;2022-09-27T01:20:02;11.05;;;9.93;;
68315;SDS011;55508;54.368;18.406;2022-09-27T01:34:17;10.55;;;8.98;;
68315;SDS011;55508;54.368;18.406;2022-09-27T01:43:18;10.32;;;9.48;;
68315;SDS011;55508;54.368;18.406;2022-09-27T01:48:49;10.15;;;9.23;;
68315;SDS011;55508;54.368;18.406;2022-09-27T01:54:22;11.00;;;10.05;;
68315;SDS011;55508;54.368;18.406;2022-09-27T01:56:57;11.50;;;10.32;;
68315;SDS011;55508;54.368;18.406;2022-09-27T01:59:35;11.88;;;10.77;;
68315;SDS011;55508;54.368;18.406;2022-09-27T02:02:22;11.13;;;10.13;;
68315;SDS011;55508;54.368;18.406;2022-09-27T02:05:09;12.45;;;11.15;;
68315;SDS011;55508;54.368;18.406;2022-09-27T02:07:44;12.50;;;11.38;;
68315;SDS011;55508;54.368;18.406;2022-09-27T02:10:18;12.73;;;11.52;;
68315;SDS011;55508;54.368;18.406;2022-09-27T02:12:56;13.27;;;11.73;;
68315;SDS011;55508;54.368;18.406;2022-09-27T02:15:33;15.20;;;12.57;;
68315;SDS011;55508;54.368;18.406;2022-09-27T02:21:41;13.02;;;11.50;;
68315;SDS011;55508;54.368;18.406;2022-09-27T02:24:18;13.27;;;11.95;;
68315;SDS011;55508;54.368;18.406;2022-09-27T02:26:48;14.77;;;11.68;;
68315;SDS011;55508;54.368;18.406;2022-09-27T02:29:27;12.35;;;11.15;;
68315;SDS011;55508;54.368;18.406;2022-09-27T02:32:00;13.23;;;11.70;;
68315;SDS011;55508;54.368;18.406;2022-09-27T02:34:28;12.27;;;11.15;;
68315;SDS011;55508;54.368;18.406;2022-09-27T02:36:57;15.18;;;11.30;;
68315;SDS011;55508;54.368;18.406;2022-09-27T02:39:24;14.00;;;11.48;;
68315;SDS011;55508;54.368;18.406;2022-09-27T02:42:01;12.20;;;11.00;;
68315;SDS011;55508;54.368;18.406;2022-09-27T02:44:29;12.55;;;10.90;;
68315;SDS011;55508;54.368;18.406;2022-09-27T03:04:55;13.30;;;11.43;;
68315;SDS011;55508;54.368;18.406;2022-09-27T03:07:25;17.48;;;12.82;;
68315;SDS011;55508;54.368;18.406;2022-09-27T03:09:53;15.07;;;11.82;;
68315;SDS011;55508;54.368;18.406;2022-09-27T03:12:20;14.48;;;13.07;;
68315;SDS011;55508;54.368;18.406;2022-09-27T03:14:53;16.20;;;13.50;;
68315;SDS011;55508;54.368;18.406;2022-09-27T03:17:44;14.70;;;12.57;;
68315;SDS011;55508;54.368;18.406;2022-09-27T03:20:29;15.90;;;13.75;;
68315;SDS011;55508;54.368;18.406;2022-09-27T03:23:07;16.52;;;13.48;;
68315;SDS011;55508;54.368;18.406;2022-09-27T03:25:34;16.77;;;13.77;;
68315;SDS011;55508;54.368;18.406;2022-09-27T03:28:02;20.00;;;13.88;;
68315;SDS011;55508;54.368;18.406;2022-09-27T03:30:30;15.35;;;12.88;;
68315;SDS011;55508;54.368;18.406;2022-09-27T03:32:57;15.05;;;13.20;;
68315;SDS011;55508;54.368;18.406;2022-09-27T03:35:59;15.23;;;13.45;;
68315;SDS011;55508;54.368;18.406;2022-09-27T03:38:26;17.33;;;13.77;;
68315;SDS011;55508;54.368;18.406;2022-09-27T03:40:54;15.30;;;12.63;;
68315;SDS011;55508;54.368;18.406;2022-09-27T03:43:21;14.65;;;13.07;;
68315;SDS011;55508;54.368;18.406;2022-09-27T03:45:48;15.32;;;13.50;;
68315;SDS011;55508;54.368;18.406;2022-09-27T03:48:16;15.38;;;12.85;;
68315;SDS011;55508;54.368;18.406;2022-09-27T03:50:42;14.63;;;12.38;;
68315;SDS011;55508;54.368;18.406;2022-09-27T03:53:10;17.05;;;14.20;;
68315;SDS011;55508;54.368;18.406;2022-09-27T03:55:37;19.25;;;14.32;;
68315;SDS011;55508;54.368;18.406;2022-09-27T03:58:04;18.95;;;13.68;;
68315;SDS011;55508;54.368;18.406;2022-09-27T04:00:32;19.40;;;15.00;;
68315;SDS011;55508;54.368;18.406;2022-09-27T04:02:59;15.30;;;13.75;;
68315;SDS011;55508;54.368;18.406;2022-09-27T04:05:27;19.98;;;14.25;;
68315;SDS011;55508;54.368;18.406;2022-09-27T04:08:05;16.75;;;14.55;;
68315;SDS011;55508;54.368;18.406;2022-09-27T04:10:33;18.35;;;15.00;;
68315;SDS011;55508;54.368;18.406;2022-09-27T04:13:00;20.58;;;16.20;;
68315;SDS011;55508;54.368;18.406;2022-09-27T04:15:31;20.70;;;16.13;;
68315;SDS011;55508;54.368;18.406;2022-09-27T04:18:19;25.23;;;15.02;;
68315;SDS011;55508;54.368;18.406;2022-09-27T04:21:04;22.85;;;17.23;;
68315;SDS011;55508;54.368;18.406;2022-09-27T04:23:34;22.23;;;16.75;;
68315;SDS011;55508;54.368;18.406;2022-09-27T04:26:02;48.28;;;31.88;;
68315;SDS011;55508;54.368;18.406;2022-09-27T04:28:45;29.33;;;21.80;;
68315;SDS011;55508;54.368;18.406;2022-09-27T04:31:19;22.17;;;15.75;;
68315;SDS011;55508;54.368;18.406;2022-09-27T04:34:13;18.38;;;15.52;;
68315;SDS011;55508;54.368;18.406;2022-09-27T04:36:40;23.65;;;16.02;;
68315;SDS011;55508;54.368;18.406;2022-09-27T04:39:13;23.85;;;16.95;;
68315;SDS011;55508;54.368;18.406;2022-09-27T04:41:42;25.27;;;17.17;;
68315;SDS011;55508;54.368;18.406;2022-09-27T04:44:11;23.67;;;17.35;;
68315;SDS011;55508;54.368;18.406;2022-09-27T04:46:42;24.50;;;17.00;;
68315;SDS011;55508;54.368;18.406;2022-09-27T04:49:10;24.98;;;17.55;;
68315;SDS011;55508;54.368;18.406;2022-09-27T04:51:38;23.92;;;18.05;;
68315;SDS011;55508;54.368;18.406;2022-09-27T04:54:05;28.25;;;17.95;;
68315;SDS011;55508;54.368;18.406;2022-09-27T04:56:37;28.00;;;19.17;;
68315;SDS011;55508;54.368;18.406;2022-09-27T04:59:05;23.40;;;17.67;;
68315;SDS011;55508;54.368;18.406;2022-09-27T05:01:38;27.58;;;18.27;;
68315;SDS011;55508;54.368;18.406;2022-09-27T05:04:13;24.00;;;18.30;;
68315;SDS011;55508;54.368;18.406;2022-09-27T05:06:46;29.27;;;18.50;;
68315;SDS011;55508;54.368;18.406;2022-09-27T05:09:24;22.55;;;17.38;;
68315;SDS011;55508;54.368;18.406;2022-09-27T05:11:54;23.88;;;18.73;;
68315;SDS011;55508;54.368;18.406;2022-09-27T05:14:39;19.67;;;16.52;;
68315;SDS011;55508;54.368;18.406;2022-09-27T05:17:06;25.42;;;17.88;;
68315;SDS011;55508;54.368;18.406;2022-09-27T05:19:52;18.80;;;16.75;;
68315;SDS011;55508;54.368;18.406;2022-09-27T05:22:39;18.08;;;14.60;;
68315;SDS011;55508;54.368;18.406;2022-09-27T05:25:07;16.15;;;14.35;;
68315;SDS011;55508;54.368;18.406;2022-09-27T05:27:34;15.85;;;13.90;;
68315;SDS011;55508;54.368;18.406;2022-09-27T05:30:02;15.75;;;13.65;;
68315;SDS011;55508;54.368;18.406;2022-09-27T05:32:41;18.48;;;13.55;;
68315;SDS011;55508;54.368;18.406;2022-09-27T05:35:24;17.17;;;12.93;;
68315;SDS011;55508;54.368;18.406;2022-09-27T05:37:56;15.80;;;14.13;;
68315;SDS011;55508;54.368;18.406;2022-09-27T05:40:28;14.70;;;13.30;;
68315;SDS011;55508;54.368;18.406;2022-09-27T05:43:08;19.60;;;14.73;;
68315;SDS011;55508;54.368;18.406;2022-09-27T05:45:36;23.13;;;16.25;;
68315;SDS011;55508;54.368;18.406;2022-09-27T05:48:04;19.13;;;15.75;;
68315;SDS011;55508;54.368;18.406;2022-09-27T05:50:36;19.63;;;16.65;;
68315;SDS011;55508;54.368;18.406;2022-09-27T05:53:04;20.25;;;17.42;;
68315;SDS011;55508;54.368;18.406;2022-09-27T05:55:32;19.52;;;17.45;;
68315;SDS011;55508;54.368;18.406;2022-09-27T05:58:03;21.23;;;16.88;;
68315;SDS011;55508;54.368;18.406;2022-09-27T06:00:43;20.55;;;16.92;;
68315;SDS011;55508;54.368;18.406;2022-09-27T06:03:30;20.00;;;16.40;;
68315;SDS011;55508;54.368;18.406;2022-09-27T06:06:17;21.23;;;16.35;;
68315;SDS011;55508;54.368;18.406;2022-09-27T06:08:48;23.17;;;16.15;;
68315;SDS011;55508;54.368;18.406;2022-09-27T06:11:17;21.83;;;16.17;;
68315;SDS011;55508;54.368;18.406;2022-09-27T06:13:48;20.75;;;16.05;;
68315;SDS011;55508;54.368;18.406;2022-09-27T06:16:15;19.75;;;16.13;;
68315;SDS011;55508;54.368;18.406;2022-09-27T06:18:44;20.73;;;17.40;;
68315;SDS011;55508;54.368;18.406;2022-09-27T06:21:11;21.75;;;18.15;;
68315;SDS011;55508;54.368;18.406;2022-09-27T06:23:44;31.00;;;22.23;;
68315;SDS011;55508;54.368;18.406;2022-09-27T06:26:16;25.60;;;22.77;;
68315;SDS011;55508;54.368;18.406;2022-09-27T06:29:07;30.70;;;23.58;;
68315;SDS011;55508;54.368;18.406;2022-09-27T06:31:37;24.95;;;20.98;;
68315;SDS011;55508;54.368;18.406;2022-09-27T06:34:17;26.25;;;21.33;;
68315;SDS011;55508;54.368;18.406;2022-09-27T06:36:44;27.67;;;21.42;;
68315;SDS011;55508;54.368;18.406;2022-09-27T06:39:16;24.67;;;19.05;;
68315;SDS011;55508;54.368;18.406;2022-09-27T06:42:01;30.42;;;23.55;;
68315;SDS011;55508;54.368;18.406;2022-09-27T06:44:48;24.15;;;20.92;;
68315;SDS011;55508;54.368;18.406;2022-09-27T06:47:35;21.88;;;18.48;;
68315;SDS011;55508;54.368;18.406;2022-09-27T06:50:21;29.88;;;23.85;;
68315;SDS011;55508;54.368;18.406;2022-09-27T06:52:49;28.33;;;21.85;;
68315;SDS011;55508;54.368;18.406;2022-09-27T06:55:17;25.30;;;19.73;;
68315;SDS011;55508;54.368;18.406;2022-09-27T06:57:44;25.88;;;21.17;;
68315;SDS011;55508;54.368;18.406;2022-09-27T07:00:30;25.17;;;22.08;;
68315;SDS011;55508;54.368;18.406;2022-09-27T07:03:09;31.20;;;22.33;;
68315;SDS011;55508;54.368;18.406;2022-09-27T07:06:01;22.38;;;19.95;;
68315;SDS011;55508;54.368;18.406;2022-09-27T07:08:43;24.00;;;19.52;;
68315;SDS011;55508;54.368;18.406;2022-09-27T07:11:10;20.75;;;18.55;;
68315;SDS011;55508;54.368;18.406;2022-09-27T07:13:38;24.92;;;19.90;;
68315;SDS011;55508;54.368;18.406;2022-09-27T07:16:14;22.23;;;19.83;;
68315;SDS011;55508;54.368;18.406;2022-09-27T07:18:42;22.38;;;19.92;;
68315;SDS011;55508;54.368;18.406;2022-09-27T07:21:09;22.85;;;19.30;;
68315;SDS011;55508;54.368;18.406;2022-09-27T07:23:38;22.70;;;20.17;;
68315;SDS011;55508;54.368;18.406;2022-09-27T07:26:07;22.15;;;19.58;;
68315;SDS011;55508;54.368;18.406;2022-09-27T07:28:36;26.02;;;19.25;;
68315;SDS011;55508;54.368;18.406;2022-09-27T07:31:03;24.50;;;20.05;;
68315;SDS011;55508;54.368;18.406;2022-09-27T07:33:31;23.02;;;20.52;;
68315;SDS011;55508;54.368;18.406;2022-09-27T07:36:05;22.80;;;20.45;;
68315;SDS011;55508;54.368;18.406;2022-09-27T07:38:39;23.33;;;20.65;;
68315;SDS011;55508;54.368;18.406;2022-09-27T07:41:07;24.58;;;21.95;;
68315;SDS011;55508;54.368;18.406;2022-09-27T07:43:35;26.73;;;22.95;;
68315;SDS011;55508;54.368;18.406;2022-09-27T07:46:03;24.20;;;21.20;;
68315;SDS011;55508;54.368;18.406;2022-09-27T07:48:41;25.48;;;22.55;;
68315;SDS011;55508;54.368;18.406;2022-09-27T07:51:16;23.48;;;21.08;;
68315;SDS011;55508;54.368;18.406;2022-09-27T07:53:52;25.00;;;22.33;;
68315;SDS011;55508;54.368;18.406;2022-09-27T07:56:45;26.00;;;22.23;;
68315;SDS011;55508;54.368;18.406;2022-09-27T07:59:15;23.90;;;21.45;;
68315;SDS011;55508;54.368;18.406;2022-09-27T08:01:43;24.80;;;22.13;;
68315;SDS011;55508;54.368;18.406;2022-09-27T08:04:11;27.30;;;22.58;;
68315;SDS011;55508;54.368;18.406;2022-09-27T08:06:40;26.30;;;23.15;;
68315;SDS011;55508;54.368;18.406;2022-09-27T08:09:07;30.20;;;24.42;;
68315;SDS011;55508;54.368;18.406;2022-09-27T08:11:39;29.40;;;25.25;;
68315;SDS011;55508;54.368;18.406;2022-09-27T08:14:08;30.65;;;25.58;;
68315;SDS011;55508;54.368;18.406;2022-09-27T08:16:39;32.30;;;25.85;;
68315;SDS011;55508;54.368;18.406;2022-09-27T08:19:25;31.98;;;25.65;;
68315;SDS011;55508;54.368;18.406;2022-09-27T08:21:55;30.58;;;26.63;;
68315;SDS011;55508;54.368;18.406;2022-09-27T08:24:37;31.25;;;25.85;;
68315;SDS011;55508;54.368;18.406;2022-09-27T08:27:23;33.63;;;25.50;;
68315;SDS011;55508;54.368;18.406;2022-09-27T08:29:52;30.70;;;25.52;;
68315;SDS011;55508;54.368;18.406;2022-09-27T08:32:19;31.73;;;25.92;;
68315;SDS011;55508;54.368;18.406;2022-09-27T08:34:50;33.33;;;26.67;;
68315;SDS011;55508;54.368;18.406;2022-09-27T08:37:19;33.10;;;26.63;;
68315;SDS011;55508;54.368;18.406;2022-09-27T08:39:47;31.58;;;26.80;;
68315;SDS011;55508;54.368;18.406;2022-09-27T08:42:33;31.40;;;25.98;;
68315;SDS011;55508;54.368;18.406;2022-09-27T08:48:07;35.33;;;28.48;;
68315;SDS011;55508;54.368;18.406;2022-09-27T08:50:40;33.38;;;27.45;;
68315;SDS011;55508;54.368;18.406;2022-09-27T08:53:19;35.95;;;29.02;;
68315;SDS011;55508;54.368;18.406;2022-09-27T08:55:58;40.55;;;29.38;;
68315;SDS011;55508;54.368;18.406;2022-09-27T09:01:01;40.03;;;30.33;;
68315;SDS011;55508;54.368;18.406;2022-09-27T09:03:38;41.92;;;31.90;;
68315;SDS011;55508;54.368;18.406;2022-09-27T09:06:16;38.40;;;29.50;;
68315;SDS011;55508;54.368;18.406;2022-09-27T09:17:35;43.58;;;32.45;;
68315;SDS011;55508;54.368;18.406;2022-09-27T09:20:33;42.15;;;32.03;;
68315;SDS011;55508;54.368;18.406;2022-09-27T09:26:41;42.13;;;32.53;;
68315;SDS011;55508;54.368;18.406;2022-09-27T09:35:01;35.75;;;29.45;;
68315;SDS011;55508;54.368;18.406;2022-09-27T09:37:43;37.42;;;27.42;;
68315;SDS011;55508;54.368;18.406;2022-09-27T09:45:59;30.17;;;25.58;;
68315;SDS011;55508;54.368;18.406;2022-09-27T09:51:45;32.75;;;25.35;;
68315;SDS011;55508;54.368;18.406;2022-09-27T09:54:18;26.65;;;23.85;;
68315;SDS011;55508;54.368;18.406;2022-09-27T09:56:54;27.38;;;22.67;;
68315;SDS011;55508;54.368;18.406;2022-09-27T09:59:27;20.90;;;18.42;;
68315;SDS011;55508;54.368;18.406;2022-09-27T10:01:57;23.17;;;20.70;;
68315;SDS011;55508;54.368;18.406;2022-09-27T10:04:27;20.40;;;18.37;;
68315;SDS011;55508;54.368;18.406;2022-09-27T10:07:00;20.23;;;18.17;;
68315;SDS011;55508;54.368;18.406;2022-09-27T10:09:31;22.38;;;19.63;;
68315;SDS011;55508;54.368;18.406;2022-09-27T10:12:17;21.05;;;18.85;;
68315;SDS011;55508;54.368;18.406;2022-09-27T10:14:46;20.25;;;18.20;;
68315;SDS011;55508;54.368;18.406;2022-09-27T10:17:17;21.20;;;18.98;;
68315;SDS011;55508;54.368;18.406;2022-09-27T10:19:46;22.00;;;19.65;;
68315;SDS011;55508;54.368;18.406;2022-09-27T10:28:45;19.55;;;17.65;;
68315;SDS011;55508;54.368;18.406;2022-09-27T10:31:37;20.58;;;18.35;;
68315;SDS011;55508;54.368;18.406;2022-09-27T10:39:50;20.73;;;17.45;;
68315;SDS011;55508;54.368;18.406;2022-09-27T10:42:20;20.60;;;18.23;;
68315;SDS011;55508;54.368;18.406;2022-09-27T10:44:49;17.02;;;15.40;;
68315;SDS011;55508;54.368;18.406;2022-09-27T10:47:26;17.80;;;16.10;;
68315;SDS011;55508;54.368;18.406;2022-09-27T10:50:02;19.80;;;17.47;;
68315;SDS011;55508;54.368;18.406;2022-09-27T10:52:59;24.50;;;17.45;;
68315;SDS011;55508;54.368;18.406;2022-09-27T10:55:41;18.25;;;15.65;;
68315;SDS011;55508;54.368;18.406;2022-09-27T10:58:28;17.45;;;15.88;;
68315;SDS011;55508;54.368;18.406;2022-09-27T11:01:01;17.50;;;15.90;;
68315;SDS011;55508;54.368;18.406;2022-09-27T11:03:52;18.10;;;16.30;;
68315;SDS011;55508;54.368;18.406;2022-09-27T11:08:53;19.00;;;17.23;;
68315;SDS011;55508;54.368;18.406;2022-09-27T11:11:25;18.65;;;16.52;;
68315;SDS011;55508;54.368;18.406;2022-09-27T11:13:58;17.65;;;16.05;;
68315;SDS011;55508;54.368;18.406;2022-09-27T11:19:43;17.75;;;15.85;;
68315;SDS011;55508;54.368;18.406;2022-09-27T11:25:09;18.67;;;16.85;;
68315;SDS011;55508;54.368;18.406;2022-09-27T11:39:51;16.70;;;15.10;;
68315;SDS011;55508;54.368;18.406;2022-09-27T11:42:36;18.88;;;16.90;;
68315;SDS011;55508;54.368;18.406;2022-09-27T11:53:47;15.00;;;13.68;;
68315;SDS011;55508;54.368;18.406;2022-09-27T12:10:08;13.63;;;12.20;;
68315;SDS011;55508;54.368;18.406;2022-09-27T12:12:40;13.15;;;12.05;;
68315;SDS011;55508;54.368;18.406;2022-09-27T12:18:18;11.32;;;10.43;;
68315;SDS011;55508;54.368;18.406;2022-09-27T12:21:35;10.90;;;10.10;;
68315;SDS011;55508;54.368;18.406;2022-09-27T12:24:02;11.43;;;10.48;;
68315;SDS011;55508;54.368;18.406;2022-09-27T12:26:35;12.23;;;11.07;;
68315;SDS011;55508;54.368;18.406;2022-09-27T12:34:48;12.48;;;11.10;;
68315;SDS011;55508;54.368;18.406;2022-09-27T12:37:30;13.88;;;12.68;;
68315;SDS011;55508;54.368;18.406;2022-09-27T12:40:02;14.07;;;12.82;;
68315;SDS011;55508;54.368;18.406;2022-09-27T12:42:43;13.80;;;12.40;;
68315;SDS011;55508;54.368;18.406;2022-09-27T12:48:41;15.60;;;14.25;;
68315;SDS011;55508;54.368;18.406;2022-09-27T12:51:18;16.60;;;14.95;;
68315;SDS011;55508;54.368;18.406;2022-09-27T13:05:34;18.50;;;16.70;;
68315;SDS011;55508;54.368;18.406;2022-09-27T13:08:25;18.80;;;17.08;;
68315;SDS011;55508;54.368;18.406;2022-09-27T13:13:52;18.23;;;16.52;;
68315;SDS011;55508;54.368;18.406;2022-09-27T13:16:24;18.75;;;17.02;;
68315;SDS011;55508;54.368;18.406;2022-09-27T13:22:01;18.13;;;16.48;;
68315;SDS011;55508;54.368;18.406;2022-09-27T13:24:44;18.92;;;16.80;;
68315;SDS011;55508;54.368;18.406;2022-09-27T13:27:35;19.85;;;17.95;;
68315;SDS011;55508;54.368;18.406;2022-09-27T13:39:16;21.60;;;19.38;;
68315;SDS011;55508;54.368;18.406;2022-09-27T13:42:07;21.15;;;19.20;;
68315;SDS011;55508;54.368;18.406;2022-09-27T13:44:46;19.77;;;17.98;;
68315;SDS011;55508;54.368;18.406;2022-09-27T13:50:47;18.13;;;16.50;;
68315;SDS011;55508;54.368;18.406;2022-09-27T13:55:57;18.30;;;16.50;;
68315;SDS011;55508;54.368;18.406;2022-09-27T14:01:41;18.38;;;16.52;;
68315;SDS011;55508;54.368;18.406;2022-09-27T14:06:47;17.33;;;15.73;;
68315;SDS011;55508;54.368;18.406;2022-09-27T14:09:17;18.25;;;16.40;;
68315;SDS011;55508;54.368;18.406;2022-09-27T14:12:00;19.10;;;17.23;;
68315;SDS011;55508;54.368;18.406;2022-09-27T14:14:30;19.98;;;18.17;;
68315;SDS011;55508;54.368;18.406;2022-09-27T14:16:59;20.60;;;18.65;;
68315;SDS011;55508;54.368;18.406;2022-09-27T14:19:32;20.05;;;18.02;;
68315;SDS011;55508;54.368;18.406;2022-09-27T14:22:00;20.13;;;18.23;;
68315;SDS011;55508;54.368;18.406;2022-09-27T14:32:32;23.40;;;16.98;;
68315;SDS011;55508;54.368;18.406;2022-09-27T14:37:56;19.55;;;17.52;;
68315;SDS011;55508;54.368;18.406;2022-09-27T14:43:34;19.02;;;17.33;;
68315;SDS011;55508;54.368;18.406;2022-09-27T14:46:03;15.20;;;13.80;;
68315;SDS011;55508;54.368;18.406;2022-09-27T14:48:33;35.95;;;16.25;;
68315;SDS011;55508;54.368;18.406;2022-09-27T14:53:47;18.08;;;16.20;;
68315;SDS011;55508;54.368;18.406;2022-09-27T14:56:19;19.02;;;17.13;;
68315;SDS011;55508;54.368;18.406;2022-09-27T14:59:00;18.55;;;16.73;;
68315;SDS011;55508;54.368;18.406;2022-09-27T15:01:29;19.02;;;17.30;;
68315;SDS011;55508;54.368;18.406;2022-09-27T15:04:01;19.90;;;17.88;;
68315;SDS011;55508;54.368;18.406;2022-09-27T15:06:31;20.55;;;18.50;;
68315;SDS011;55508;54.368;18.406;2022-09-27T15:08:58;19.25;;;17.45;;
68315;SDS011;55508;54.368;18.406;2022-09-27T15:11:25;19.20;;;17.40;;
68315;SDS011;55508;54.368;18.406;2022-09-27T15:13:55;20.08;;;18.08;;
68315;SDS011;55508;54.368;18.406;2022-09-27T15:16:24;19.70;;;17.83;;
68315;SDS011;55508;54.368;18.406;2022-09-27T15:19:10;20.13;;;18.13;;
68315;SDS011;55508;54.368;18.406;2022-09-27T15:22:20;19.98;;;18.00;;
68315;SDS011;55508;54.368;18.406;2022-09-27T15:24:48;19.65;;;17.75;;
68315;SDS011;55508;54.368;18.406;2022-09-27T15:27:17;19.60;;;17.70;;
68315;SDS011;55508;54.368;18.406;2022-09-27T15:29:51;20.57;;;18.43;;
68315;SDS011;55508;54.368;18.406;2022-09-27T15:32:26;22.15;;;19.85;;
68315;SDS011;55508;54.368;18.406;2022-09-27T15:34:54;22.25;;;19.98;;
68315;SDS011;55508;54.368;18.406;2022-09-27T15:37:23;23.48;;;20.20;;
68315;SDS011;55508;54.368;18.406;2022-09-27T15:39:54;22.73;;;20.33;;
68315;SDS011;55508;54.368;18.406;2022-09-27T15:42:23;23.58;;;21.25;;
68315;SDS011;55508;54.368;18.406;2022-09-27T15:44:51;24.42;;;21.90;;
68315;SDS011;55508;54.368;18.406;2022-09-27T15:52:44;24.65;;;21.77;;
68315;SDS011;55508;54.368;18.406;2022-09-27T15:55:20;25.38;;;22.77;;
68315;SDS011;55508;54.368;18.406;2022-09-27T15:57:52;25.23;;;22.73;;
68315;SDS011;55508;54.368;18.406;2022-09-27T16:00:25;25.60;;;23.00;;
68315;SDS011;55508;54.368;18.406;2022-09-27T16:02:52;23.80;;;21.10;;
68315;SDS011;55508;54.368;18.406;2022-09-27T16:05:19;25.75;;;22.80;;
68315;SDS011;55508;54.368;18.406;2022-09-27T16:07:49;25.05;;;22.50;;
68315;SDS011;55508;54.368;18.406;2022-09-27T16:10:21;24.50;;;21.98;;
68315;SDS011;55508;54.368;18.406;2022-09-27T16:12:50;26.20;;;23.40;;
68315;SDS011;55508;54.368;18.406;2022-09-27T16:15:18;25.67;;;23.02;;
68315;SDS011;55508;54.368;18.406;2022-09-27T16:17:45;25.17;;;22.48;;
68315;SDS011;55508;54.368;18.406;2022-09-27T16:20:14;27.33;;;23.23;;
68315;SDS011;55508;54.368;18.406;2022-09-27T16:22:44;26.08;;;23.48;;
68315;SDS011;55508;54.368;18.406;2022-09-27T16:25:12;25.02;;;22.33;;
68315;SDS011;55508;54.368;18.406;2022-09-27T16:27:39;25.48;;;22.77;;
68315;SDS011;55508;54.368;18.406;2022-09-27T16:30:06;26.52;;;23.83;;
68315;SDS011;55508;54.368;18.406;2022-09-27T16:32:38;28.75;;;25.67;;
68315;SDS011;55508;54.368;18.406;2022-09-27T16:35:07;28.85;;;25.23;;
68315;SDS011;55508;54.368;18.406;2022-09-27T16:37:35;26.90;;;23.98;;
68315;SDS011;55508;54.368;18.406;2022-09-27T16:40:03;28.10;;;24.15;;
68315;SDS011;55508;54.368;18.406;2022-09-27T16:42:31;25.63;;;23.02;;
68315;SDS011;55508;54.368;18.406;2022-09-27T16:44:59;25.58;;;22.90;;
68315;SDS011;55508;54.368;18.406;2022-09-27T16:47:33;26.38;;;23.17;;
68315;SDS011;55508;54.368;18.406;2022-09-27T16:50:02;26.83;;;23.73;;
68315;SDS011;55508;54.368;18.406;2022-09-27T16:52:48;25.08;;;22.02;;
68315;SDS011;55508;54.368;18.406;2022-09-27T16:55:17;26.00;;;23.27;;
68315;SDS011;55508;54.368;18.406;2022-09-27T16:57:47;26.88;;;23.60;;
68315;SDS011;55508;54.368;18.406;2022-09-27T17:00:15;28.48;;;23.75;;
68315;SDS011;55508;54.368;18.406;2022-09-27T17:02:43;26.58;;;23.23;;
68315;SDS011;55508;54.368;18.406;2022-09-27T17:05:14;28.63;;;24.17;;
68315;SDS011;55508;54.368;18.406;2022-09-27T17:07:41;29.13;;;24.58;;
68315;SDS011;55508;54.368;18.406;2022-09-27T17:10:08;26.70;;;23.77;;
68315;SDS011;55508;54.368;18.406;2022-09-27T17:12:36;25.80;;;23.08;;
68315;SDS011;55508;54.368;18.406;2022-09-27T17:15:03;26.67;;;23.85;;
68315;SDS011;55508;54.368;18.406;2022-09-27T17:17:30;26.98;;;23.50;;
68315;SDS011;55508;54.368;18.406;2022-09-27T17:19:57;28.55;;;25.05;;
68315;SDS011;55508;54.368;18.406;2022-09-27T17:22:25;27.27;;;24.15;;
68315;SDS011;55508;54.368;18.406;2022-09-27T17:24:51;28.25;;;25.23;;
68315;SDS011;55508;54.368;18.406;2022-09-27T17:27:18;30.35;;;25.23;;
68315;SDS011;55508;54.368;18.406;2022-09-27T17:29:51;28.58;;;25.15;;
68315;SDS011;55508;54.368;18.406;2022-09-27T17:32:18;31.42;;;26.40;;
68315;SDS011;55508;54.368;18.406;2022-09-27T17:34:50;29.83;;;25.13;;
68315;SDS011;55508;54.368;18.406;2022-09-27T17:37:17;29.70;;;25.50;;
68315;SDS011;55508;54.368;18.406;2022-09-27T17:39:45;30.85;;;26.90;;
68315;SDS011;55508;54.368;18.406;2022-09-27T17:42:12;32.55;;;27.65;;
68315;SDS011;55508;54.368;18.406;2022-09-27T17:44:39;30.52;;;25.50;;
68315;SDS011;55508;54.368;18.406;2022-09-27T17:47:06;29.52;;;26.30;;
68315;SDS011;55508;54.368;18.406;2022-09-27T17:49:52;27.70;;;24.13;;
68315;SDS011;55508;54.368;18.406;2022-09-27T17:52:38;31.38;;;25.33;;
68315;SDS011;55508;54.368;18.406;2022-09-27T17:55:05;31.42;;;26.08;;
68315;SDS011;55508;54.368;18.406;2022-09-27T17:57:32;29.98;;;25.35;;
68315;SDS011;55508;54.368;18.406;2022-09-27T17:59:59;29.27;;;25.38;;
68315;SDS011;55508;54.368;18.406;2022-09-27T18:02:27;28.63;;;25.48;;
68315;SDS011;55508;54.368;18.406;2022-09-27T18:04:54;29.60;;;26.40;;
68315;SDS011;55508;54.368;18.406;2022-09-27T18:07:21;29.67;;;25.20;;
68315;SDS011;55508;54.368;18.406;2022-09-27T18:09:49;29.88;;;25.88;;
68315;SDS011;55508;54.368;18.406;2022-09-27T18:12:17;32.90;;;26.42;;
68315;SDS011;55508;54.368;18.406;2022-09-27T18:14:44;29.92;;;26.23;;
68315;SDS011;55508;54.368;18.406;2022-09-27T18:17:11;32.38;;;27.55;;
68315;SDS011;55508;54.368;18.406;2022-09-27T18:19:39;30.48;;;27.25;;
68315;SDS011;55508;54.368;18.406;2022-09-27T18:22:06;30.98;;;26.50;;